Time;durP1;ratioP1;P1;durP2;ratioP2;P2;SDS_P1;SDS_P2;PMS_P1;PMS_P2;Temp;Humidity;BMP_temperature;BMP_pressure;BME280_temperature;BME280_humidity;BME280_pressure;Samples;Min_cycle;Max_cycle;Signal;HPM_P1;HPM_P2
2021/08/16 00:01:21;;;;;;;9.93;8.93;;;;;;;21.72;70.43;99428.00;5145688;27;20030;-70
2021/08/16 00:04:07;;;;;;;12.75;8.77;;;;;;;21.56;71.17;99436.13;5139196;27;20027;-70
2021/08/16 00:06:53;;;;;;;10.65;9.35;;;;;;;21.50;71.12;99429.47;5126343;28;20035;-69
2021/08/16 00:09:39;;;;;;;12.80;9.65;;;;;;;21.53;71.00;99423.19;5126735;28;20073;-69
2021/08/16 00:12:25;;;;;;;13.13;9.13;;;;;;;21.52;71.39;99430.25;5126752;28;20073;-69
2021/08/16 00:15:11;;;;;;;10.25;9.07;;;;;;;21.48;71.72;99423.50;5126516;28;20098;-69
2021/08/16 00:17:59;;;;;;;10.65;9.52;;;;;;;21.42;72.41;99423.94;5125654;28;20194;-69
2021/08/16 00:20:45;;;;;;;11.73;9.93;;;;;;;21.42;72.39;99430.97;5126988;27;20129;-70
2021/08/16 00:23:31;;;;;;;10.50;9.50;;;;;;;21.41;72.06;99427.50;5126520;28;20028;-71
2021/08/16 00:26:18;;;;;;;12.48;9.68;;;;;;;21.36;72.85;99430.47;5123991;28;20023;-69
2021/08/16 00:29:03;;;;;;;11.65;9.45;;;;;;;21.37;72.22;99432.13;5104669;28;20020;-69
2021/08/16 00:31:49;;;;;;;12.45;9.93;;;;;;;21.28;73.11;99437.25;5105535;28;20028;-72
2021/08/16 00:34:35;;;;;;;12.85;10.18;;;;;;;21.23;73.05;99434.06;5104757;28;20032;-69
2021/08/16 00:37:21;;;;;;;14.27;10.20;;;;;;;21.21;72.84;99436.81;5143410;27;20027;-69
2021/08/16 00:40:08;;;;;;;11.25;9.85;;;;;;;21.11;73.78;99439.25;5146264;27;20035;-67
2021/08/16 00:42:54;;;;;;;11.60;9.95;;;;;;;21.09;73.32;99428.00;5145709;27;20224;-73
2021/08/16 00:45:40;;;;;;;10.20;9.20;;;;;;;21.11;74.18;99436.63;5149136;27;20098;-73
2021/08/16 00:48:26;;;;;;;11.75;9.38;;;;;;;21.13;73.67;99439.97;5145738;27;20027;-71
2021/08/16 00:51:13;;;;;;;13.32;9.98;;;;;;;21.11;73.73;99431.34;5145277;27;20220;-69
2021/08/16 00:54:00;;;;;;;10.52;9.43;;;;;;;21.09;73.80;99432.41;5145244;27;20035;-67
2021/08/16 00:56:46;;;;;;;12.57;9.82;;;;;;;21.09;74.03;99433.25;5145393;27;20068;-69
2021/08/16 00:59:33;;;;;;;10.80;9.68;;;;;;;21.07;74.57;99435.13;5145142;27;20074;-69
2021/08/16 01:02:18;;;;;;;10.30;9.23;;;;;;;21.07;74.06;99439.56;5145239;27;20058;-69
2021/08/16 01:05:07;;;;;;;10.70;9.43;;;;;;;20.94;74.79;99423.78;5130304;27;20047;-68
2021/08/16 01:07:54;;;;;;;11.52;9.88;;;;;;;20.78;75.85;99451.16;5123843;28;20028;-69
2021/08/16 01:10:40;;;;;;;11.43;10.10;;;;;;;20.82;75.04;99438.59;5124626;28;20016;-71
2021/08/16 01:13:29;;;;;;;12.25;10.07;;;;;;;20.84;74.85;99432.28;5124440;28;20047;-72
2021/08/16 01:16:18;;;;;;;16.88;10.45;;;;;;;20.56;75.46;99388.56;5124411;28;20069;-73
2021/08/16 01:19:05;;;;;;;15.95;9.98;;;;;;;20.82;75.24;99425.44;5124358;28;20027;-70
2021/08/16 01:21:51;;;;;;;13.15;10.93;;;;;;;20.78;75.52;99440.63;5129590;27;20042;-70
2021/08/16 01:24:39;;;;;;;13.00;10.82;;;;;;;20.59;76.92;99445.41;5130455;27;20320;-70
2021/08/16 01:27:25;;;;;;;11.98;10.65;;;;;;;20.58;76.76;99451.59;5143727;27;20070;-72
2021/08/16 01:30:15;;;;;;;12.88;10.93;;;;;;;20.29;76.82;99417.56;5144867;27;20042;-72
2021/08/16 01:33:01;;;;;;;10.63;9.60;;;;;;;20.56;76.35;99456.97;5128669;27;20027;-70
2021/08/16 01:35:47;;;;;;;14.63;10.38;;;;;;;20.52;76.28;99455.47;5122741;28;20337;-69
2021/08/16 01:38:36;;;;;;;14.65;11.05;;;;;;;20.24;76.75;99414.41;5124173;28;20027;-69
2021/08/16 01:41:22;;;;;;;13.80;11.23;;;;;;;20.55;76.36;99455.31;5108738;28;20055;-68
2021/08/16 01:44:14;;;;;;;15.02;11.88;;;;;;;20.55;76.21;99459.69;5124038;28;20043;-70
2021/08/16 01:47:00;;;;;;;12.23;11.10;;;;;;;20.49;76.57;99467.06;5124257;28;20102;-69
2021/08/16 01:49:46;;;;;;;15.25;11.23;;;;;;;20.38;76.92;99472.19;5123669;28;20047;-69
2021/08/16 01:52:32;;;;;;;12.55;10.52;;;;;;;20.38;76.67;99469.56;5123884;28;20224;-69
2021/08/16 01:55:18;;;;;;;12.35;10.80;;;;;;;20.41;76.70;99469.38;5124999;28;20055;-73
2021/08/16 01:58:05;;;;;;;12.20;10.98;;;;;;;20.37;76.60;99467.03;5122901;28;20043;-72
2021/08/16 02:00:51;;;;;;;18.13;11.15;;;;;;;20.41;76.68;99463.25;5122843;28;20094;-71
2021/08/16 02:03:37;;;;;;;13.70;11.57;;;;;;;20.38;77.19;99466.94;5124344;28;20096;-71
2021/08/16 02:06:24;;;;;;;15.10;11.25;;;;;;;20.37;77.05;99467.88;5109526;28;20030;-70
2021/08/16 02:09:09;;;;;;;15.88;11.77;;;;;;;20.32;77.06;99475.22;5108555;28;20119;-70
2021/08/16 02:11:55;;;;;;;13.23;11.60;;;;;;;20.28;77.77;99469.31;5123356;28;20024;-69
2021/08/16 02:14:41;;;;;;;13.98;11.10;;;;;;;20.29;77.52;99486.78;5122633;28;20061;-71
2021/08/16 02:17:27;;;;;;;12.85;11.45;;;;;;;20.14;78.01;99486.00;5122823;28;20043;-70
2021/08/16 02:20:13;;;;;;;14.38;12.32;;;;;;;20.05;78.38;99491.84;5123454;28;20030;-69
2021/08/16 02:22:59;;;;;;;14.32;12.35;;;;;;;20.08;78.46;99493.41;5124258;28;20034;-74
2021/08/16 02:25:45;;;;;;;13.73;12.32;;;;;;;20.03;78.50;99495.53;5124109;28;20076;-73
2021/08/16 02:28:33;;;;;;;13.90;11.90;;;;;;;19.79;78.55;99459.31;5122419;28;20024;-71
2021/08/16 02:31:23;;;;;;;12.35;11.05;;;;;;;19.95;78.91;99481.09;5123357;28;20255;-68
2021/08/16 02:34:09;;;;;;;15.18;11.38;;;;;;;20.02;78.36;99484.13;5123545;28;20026;-72
2021/08/16 02:36:55;;;;;;;13.32;11.93;;;;;;;20.04;78.59;99492.78;5123429;28;20027;-70
2021/08/16 02:39:41;;;;;;;15.20;11.57;;;;;;;20.08;78.31;99491.66;5123315;28;20040;-69
2021/08/16 02:42:27;;;;;;;15.10;11.60;;;;;;;20.09;78.24;99501.22;5124014;28;20022;-68
2021/08/16 02:45:13;;;;;;;16.48;11.98;;;;;;;20.07;78.74;99492.59;5122461;28;20352;-68
2021/08/16 02:48:02;;;;;;;20.42;15.38;;;;;;;19.98;79.03;99480.00;5123561;28;20154;-72
2021/08/16 02:50:48;;;;;;;13.35;11.95;;;;;;;20.08;79.46;99507.44;5123584;28;20015;-71
2021/08/16 02:53:33;;;;;;;15.00;11.60;;;;;;;20.00;79.39;99501.81;5122407;28;20344;-71
2021/08/16 02:56:20;;;;;;;13.45;11.48;;;;;;;20.05;79.44;99517.28;5122495;28;20343;-68
2021/08/16 02:59:05;;;;;;;13.05;11.70;;;;;;;20.08;79.01;99517.94;5123281;28;20050;-69
2021/08/16 03:01:51;;;;;;;17.73;11.52;;;;;;;20.12;78.69;99524.69;5138703;27;20059;-69
2021/08/16 03:04:37;;;;;;;14.25;12.20;;;;;;;20.13;78.58;99513.22;5131292;27;20023;-71
2021/08/16 03:07:23;;;;;;;20.63;14.82;;;;;;;20.10;77.95;99502.06;5122071;28;20077;-71
2021/08/16 03:10:10;;;;;;;16.23;12.82;;;;;;;20.18;78.75;99519.03;5123557;28;20028;-70
2021/08/16 03:12:59;;;;;;;15.57;12.70;;;;;;;20.26;78.52;99528.22;5123378;28;20032;-70
2021/08/16 03:15:44;;;;;;;13.55;12.15;;;;;;;20.19;78.80;99522.50;5122447;28;20027;-68
2021/08/16 03:18:33;;;;;;;15.50;12.65;;;;;;;20.21;78.73;99525.91;5121095;28;20220;-70
2021/08/16 03:21:18;;;;;;;14.23;11.75;;;;;;;20.20;78.65;99512.84;5122487;28;20027;-69
2021/08/16 03:24:05;;;;;;;14.43;12.25;;;;;;;20.33;78.54;99521.63;5125872;28;20050;-70
2021/08/16 03:26:52;;;;;;;14.52;12.55;;;;;;;20.39;78.59;99523.00;5141816;28;20027;-70
2021/08/16 03:29:37;;;;;;;14.65;12.93;;;;;;;20.45;78.47;99527.88;5141899;28;20220;-69
2021/08/16 03:32:23;;;;;;;16.23;12.20;;;;;;;20.43;77.84;99524.50;5143913;27;20099;-70
2021/08/16 03:35:09;;;;;;;17.90;11.88;;;;;;;20.50;77.65;99521.34;5146934;27;20068;-69
2021/08/16 03:37:55;;;;;;;15.82;13.98;;;;;;;20.45;77.98;99533.13;5146191;27;20027;-70
2021/08/16 03:40:41;;;;;;;21.33;13.15;;;;;;;20.56;77.59;99525.38;5146846;27;20038;-70
2021/08/16 03:43:27;;;;;;;15.63;12.98;;;;;;;20.58;77.48;99538.44;5145375;27;20027;-69
2021/08/16 03:46:13;;;;;;;19.13;13.18;;;;;;;20.43;77.84;99527.13;5146725;27;20023;-70
2021/08/16 03:48:59;;;;;;;15.82;12.63;;;;;;;20.53;77.71;99542.19;5137859;27;20016;-69
2021/08/16 03:51:45;;;;;;;18.75;13.15;;;;;;;20.63;77.48;99538.97;5124662;28;20106;-69
2021/08/16 03:54:31;;;;;;;16.27;13.25;;;;;;;20.78;76.75;99542.41;5110919;28;20067;-70
2021/08/16 03:57:17;;;;;;;17.17;12.32;;;;;;;20.82;77.36;99549.16;5125564;28;20035;-70
2021/08/16 04:00:09;;;;;;;15.77;13.02;;;;;;;20.54;76.92;99495.69;5126216;28;20038;-70
2021/08/16 04:02:55;;;;;;;26.88;13.93;;;;;;;20.84;76.71;99539.38;5125515;28;20228;-70
2021/08/16 04:05:41;;;;;;;18.55;12.85;;;;;;;21.03;76.29;99560.06;5125470;28;20074;-69
2021/08/16 04:08:27;;;;;;;15.63;12.20;;;;;;;21.07;76.63;99563.34;5124280;28;20023;-69
2021/08/16 04:11:13;;;;;;;20.90;13.48;;;;;;;21.02;76.56;99559.22;5125420;28;20055;-69
2021/08/16 04:13:59;;;;;;;17.20;13.95;;;;;;;21.12;76.55;99561.22;5124977;28;20035;-71
2021/08/16 04:16:45;;;;;;;16.98;13.27;;;;;;;21.24;75.83;99564.84;5123680;28;20259;-71
2021/08/16 04:19:31;;;;;;;19.60;13.50;;;;;;;21.23;76.24;99565.78;5106147;28;20019;-70
2021/08/16 04:22:17;;;;;;;18.48;13.25;;;;;;;21.32;75.92;99571.28;5132139;27;20185;-70
2021/08/16 04:25:04;;;;;;;16.98;12.82;;;;;;;21.37;75.88;99570.94;5146962;27;20320;-71
2021/08/16 04:27:50;;;;;;;19.40;14.75;;;;;;;21.33;75.57;99577.38;5146767;27;20069;-71
2021/08/16 04:30:36;;;;;;;18.75;14.65;;;;;;;21.38;75.82;99575.28;5145865;27;20019;-71
2021/08/16 04:33:24;;;;;;;16.98;14.32;;;;;;;21.49;75.23;99559.56;5145923;27;20030;-71
2021/08/16 04:36:10;;;;;;;18.38;14.98;;;;;;;21.58;75.82;99559.91;5144403;27;20324;-70
2021/08/16 04:38:56;;;;;;;19.13;15.23;;;;;;;21.67;75.29;99556.63;5145070;27;20023;-71
2021/08/16 04:41:42;;;;;;;19.05;13.32;;;;;;;21.70;75.00;99559.88;5144282;27;20056;-71
2021/08/16 04:44:28;;;;;;;16.88;13.13;;;;;;;21.82;74.61;99559.97;5128142;27;20224;-68
2021/08/16 04:47:14;;;;;;;15.88;13.27;;;;;;;21.87;74.57;99558.69;5124594;28;20036;-71
2021/08/16 04:50:00;;;;;;;19.63;14.13;;;;;;;21.77;74.81;99555.03;5123859;28;20027;-70
2021/08/16 04:52:46;;;;;;;18.58;13.30;;;;;;;21.85;74.42;99562.41;5124831;28;20027;-71
2021/08/16 04:55:32;;;;;;;14.20;12.70;;;;;;;21.88;73.62;99560.41;5124256;28;20028;-69
2021/08/16 04:58:18;;;;;;;20.38;13.38;;;;;;;21.93;73.68;99556.59;5122961;28;20055;-73
2021/08/16 05:01:04;;;;;;;13.98;12.13;;;;;;;22.03;73.38;99557.63;5123716;28;20036;-70
2021/08/16 05:03:50;;;;;;;14.18;12.30;;;;;;;22.00;74.47;99563.94;5125147;28;20023;-67
2021/08/16 05:06:42;;;;;;;17.00;12.60;;;;;;;22.07;73.95;99564.34;5124811;28;20076;-67
2021/08/16 05:09:28;;;;;;;16.15;11.75;;;;;;;22.13;73.70;99561.28;5124418;28;20062;-67
2021/08/16 05:12:13;;;;;;;13.38;11.15;;;;;;;22.23;72.98;99562.31;5124899;28;20024;-66
2021/08/16 05:14:59;;;;;;;17.25;11.48;;;;;;;22.41;73.39;99561.97;5124010;28;20101;-66
2021/08/16 05:17:45;;;;;;;23.08;12.75;;;;;;;22.56;72.96;99571.41;5124239;28;20035;-68
2021/08/16 05:20:35;;;;;;;20.77;13.48;;;;;;;22.53;72.35;99570.78;5123269;28;20030;-66
2021/08/16 05:23:21;;;;;;;16.83;12.80;;;;;;;22.70;72.72;99564.25;5124123;28;20347;-66
2021/08/16 05:26:07;;;;;;;22.23;12.85;;;;;;;22.79;72.57;99571.50;5123372;28;20024;-66
2021/08/16 05:28:53;;;;;;;22.52;14.52;;;;;;;22.80;71.68;99570.53;5124495;28;20063;-66
2021/08/16 05:31:39;;;;;;;18.65;13.40;;;;;;;22.82;71.58;99565.16;5124743;28;20386;-68
2021/08/16 05:34:25;;;;;;;24.48;15.18;;;;;;;22.84;71.00;99568.53;5125076;28;20035;-66
2021/08/16 05:37:11;;;;;;;27.85;15.73;;;;;;;22.69;70.83;99575.78;5124665;28;20034;-66
2021/08/16 05:39:57;;;;;;;22.80;15.00;;;;;;;22.77;70.44;99569.94;5124856;28;20276;-67
2021/08/16 05:42:43;;;;;;;19.63;14.00;;;;;;;22.84;71.07;99566.72;5123454;28;20399;-66
2021/08/16 05:45:29;;;;;;;23.50;14.30;;;;;;;22.87;70.72;99579.72;5123919;28;20035;-67
2021/08/16 05:48:17;;;;;;;18.40;14.15;;;;;;;22.88;70.90;99565.53;5122232;28;20030;-67
2021/08/16 05:51:03;;;;;;;18.00;13.45;;;;;;;23.08;70.69;99568.47;5123921;28;20090;-68
2021/08/16 05:53:49;;;;;;;22.08;13.82;;;;;;;23.16;69.73;99566.13;5123128;28;20055;-68
2021/08/16 05:56:35;;;;;;;21.73;13.82;;;;;;;23.17;69.37;99562.50;5123470;28;20325;-68
2021/08/16 05:59:21;;;;;;;19.30;13.48;;;;;;;23.24;68.95;99569.03;5123619;28;20051;-68
2021/08/16 06:02:07;;;;;;;17.77;13.68;;;;;;;23.34;68.73;99569.16;5124423;28;20054;-68
2021/08/16 06:04:53;;;;;;;16.48;13.02;;;;;;;23.32;68.48;99571.09;5123572;28;20031;-69
2021/08/16 06:07:39;;;;;;;21.85;13.50;;;;;;;23.41;68.35;99578.28;5123569;28;20035;-68
2021/08/16 06:10:24;;;;;;;22.85;13.65;;;;;;;23.42;67.68;99574.69;5123390;28;20023;-67
2021/08/16 06:13:10;;;;;;;21.08;12.65;;;;;;;23.58;68.20;99579.63;5122713;28;20031;-68
2021/08/16 06:15:57;;;;;;;24.00;12.90;;;;;;;23.72;67.64;99575.09;5123044;28;20030;-67
2021/08/16 06:18:43;;;;;;;18.15;11.45;;;;;;;23.83;67.99;99579.53;5122548;28;20047;-69
2021/08/16 06:21:29;;;;;;;21.38;12.32;;;;;;;23.84;66.56;99579.41;5122546;28;20020;-68
2021/08/16 06:24:15;;;;;;;15.43;11.75;;;;;;;23.89;66.90;99574.63;5124015;28;20320;-68
2021/08/16 06:27:01;;;;;;;16.35;11.18;;;;;;;24.03;67.24;99581.47;5123157;28;20031;-69
2021/08/16 06:29:47;;;;;;;21.92;12.13;;;;;;;24.13;66.60;99576.28;5122246;28;20321;-69
2021/08/16 06:32:37;;;;;;;12.60;9.50;;;;;;;24.06;62.25;99585.69;5120619;28;20258;-68
2021/08/16 06:35:23;;;;;;;13.52;10.63;;;;;;;24.21;64.37;99589.72;5102983;28;20100;-68
2021/08/16 06:38:22;;;;;;;18.55;11.05;;;;;;;24.27;64.91;99588.41;5101447;28;20023;-68
2021/08/16 06:41:08;;;;;;;18.38;10.13;;;;;;;24.43;64.48;99585.38;5101986;28;20032;-68
2021/08/16 06:43:54;;;;;;;22.27;11.48;;;;;;;24.50;64.88;99586.56;5103554;28;20028;-67
2021/08/16 06:46:40;;;;;;;18.35;10.52;;;;;;;24.47;61.85;99595.59;5120087;28;20023;-68
2021/08/16 06:49:26;;;;;;;17.75;10.20;;;;;;;24.47;61.48;99589.47;5122102;28;20102;-68
2021/08/16 06:52:13;;;;;;;18.27;9.45;;;;;;;24.59;62.34;99590.25;5119467;28;20020;-68
2021/08/16 06:54:59;;;;;;;17.67;10.02;;;;;;;24.67;62.89;99585.22;5122989;28;20069;-69
2021/08/16 06:57:45;;;;;;;16.65;10.02;;;;;;;24.76;62.47;99589.75;5121351;28;20040;-68
2021/08/16 07:00:31;;;;;;;13.32;9.50;;;;;;;24.83;61.68;99590.09;5122335;28;20386;-69
2021/08/16 07:03:17;;;;;;;19.48;9.85;;;;;;;24.82;60.82;99591.03;5123005;28;20285;-69
2021/08/16 07:06:03;;;;;;;18.13;10.07;;;;;;;24.78;59.75;99593.13;5102634;28;20077;-68
2021/08/16 07:08:50;;;;;;;18.35;8.85;;;;;;;24.86;60.23;99584.53;5102369;28;20044;-68
2021/08/16 07:11:36;;;;;;;18.02;9.05;;;;;;;25.07;60.75;99589.84;5101568;28;20095;-68
2021/08/16 07:14:22;;;;;;;15.30;9.25;;;;;;;25.15;59.94;99590.06;5101645;28;20055;-68
2021/08/16 07:17:08;;;;;;;19.67;9.90;;;;;;;25.09;57.72;99579.13;5102516;28;20023;-69
2021/08/16 07:19:54;;;;;;;14.55;7.47;;;;;;;25.33;59.79;99592.16;5086783;28;20102;-68
2021/08/16 07:22:40;;;;;;;15.10;7.70;;;;;;;25.40;58.71;99595.13;5124630;28;20027;-68
2021/08/16 07:25:26;;;;;;;17.88;9.10;;;;;;;25.39;57.45;99588.97;5142255;28;20026;-69
2021/08/16 07:28:12;;;;;;;12.40;6.90;;;;;;;25.41;54.20;99599.44;5142780;27;20262;-68
2021/08/16 07:30:59;;;;;;;14.10;6.90;;;;;;;25.34;54.70;99562.03;5141723;27;20023;-69
2021/08/16 07:33:45;;;;;;;11.13;6.60;;;;;;;25.55;56.71;99592.97;5142492;28;20172;-69
2021/08/16 07:36:31;;;;;;;13.40;7.45;;;;;;;25.63;57.26;99601.09;5142666;28;20026;-68
2021/08/16 07:39:17;;;;;;;13.05;7.63;;;;;;;25.71;56.26;99606.59;5127463;27;20065;-69
2021/08/16 07:42:03;;;;;;;10.23;7.25;;;;;;;25.66;55.25;99599.00;5142436;28;20035;-69
2021/08/16 07:44:53;;;;;;;10.55;6.78;;;;;;;25.64;53.48;99600.97;5142271;28;20042;-66
2021/08/16 07:47:39;;;;;;;16.92;7.18;;;;;;;25.78;54.34;99596.28;5141770;27;20148;-69
2021/08/16 07:50:25;;;;;;;10.63;6.47;;;;;;;25.82;53.72;99603.00;5142262;28;20034;-68
2021/08/16 07:53:13;;;;;;;12.98;6.57;;;;;;;25.73;54.16;99602.00;5137961;28;20140;-66
2021/08/16 07:55:59;;;;;;;9.82;6.63;;;;;;;25.61;52.44;99587.13;5100795;28;20031;-68
2021/08/16 07:58:45;;;;;;;10.77;6.45;;;;;;;25.83;52.52;99599.38;5100918;28;20177;-67
2021/08/16 08:01:30;;;;;;;14.15;6.55;;;;;;;25.95;52.90;99593.00;5100850;28;20221;-68
2021/08/16 08:04:16;;;;;;;13.98;6.95;;;;;;;25.91;52.28;99596.03;5110337;28;20088;-69
2021/08/16 08:07:02;;;;;;;10.65;6.63;;;;;;;26.03;52.31;99589.69;5122151;28;20027;-69
2021/08/16 08:09:48;;;;;;;13.40;6.43;;;;;;;26.11;52.75;99586.38;5120836;28;20020;-69
2021/08/16 08:12:34;;;;;;;11.45;6.63;;;;;;;26.04;51.40;99579.91;5122794;28;20034;-69
2021/08/16 08:15:21;;;;;;;12.15;6.47;;;;;;;26.12;50.82;99588.91;5121467;28;20023;-67
2021/08/16 08:18:10;;;;;;;10.30;6.50;;;;;;;26.17;52.38;99584.00;5120929;28;20305;-67
2021/08/16 08:20:55;;;;;;;10.48;6.13;;;;;;;26.18;51.77;99575.09;5121989;28;20070;-70
2021/08/16 08:23:42;;;;;;;13.35;6.85;;;;;;;26.21;50.38;99581.09;5123858;28;20019;-65
2021/08/16 08:26:28;;;;;;;11.05;6.25;;;;;;;26.31;49.90;99580.13;5124797;28;20254;-68
2021/08/16 08:29:13;;;;;;;12.60;6.00;;;;;;;26.35;48.25;99589.50;5123298;28;20027;-67
2021/08/16 08:31:59;;;;;;;10.15;5.70;;;;;;;26.45;48.67;99578.91;5125312;27;20091;-69
2021/08/16 08:34:49;;;;;;;8.32;5.28;;;;;;;26.53;48.73;99570.22;5125350;27;20035;-69
2021/08/16 08:37:35;;;;;;;7.68;5.65;;;;;;;26.64;48.60;99575.41;5126236;27;20115;-68
2021/08/16 08:40:21;;;;;;;9.27;5.30;;;;;;;26.79;50.18;99570.53;5122613;28;20051;-66
2021/08/16 08:43:12;;;;;;;12.00;5.97;;;;;;;26.92;49.12;99564.09;5107668;28;20020;-69
2021/08/16 08:46:00;;;;;;;9.40;6.47;;;;;;;27.00;49.73;99557.09;5122670;28;20023;-68
2021/08/16 08:48:46;;;;;;;9.30;5.78;;;;;;;27.16;50.71;99561.84;5123300;28;20068;-70
2021/08/16 08:51:35;;;;;;;10.50;6.47;;;;;;;27.23;49.33;99561.28;5121608;28;20050;-68
2021/08/16 08:54:22;;;;;;;9.55;6.28;;;;;;;27.36;49.45;99573.31;5123784;28;20055;-69
2021/08/16 08:57:17;;;;;;;9.70;6.05;;;;;;;27.34;47.92;99564.63;5121875;28;20099;-69
2021/08/16 09:00:04;;;;;;;12.10;6.05;;;;;;;27.37;48.99;99569.66;5122592;28;20116;-68
2021/08/16 09:03:01;;;;;;;10.93;5.85;;;;;;;27.32;47.51;99533.78;5122240;28;20055;-69
2021/08/16 09:05:51;;;;;;;7.13;6.10;;;;;;;27.68;49.79;99577.41;5123623;28;20054;-70
2021/08/16 09:08:37;;;;;;;7.05;5.93;;;;;;;27.67;50.55;99577.53;5121930;28;20095;-69
2021/08/16 09:11:27;;;;;;;9.30;6.10;;;;;;;27.61;48.90;99568.31;5123083;28;20024;-70
2021/08/16 09:14:13;;;;;;;9.35;6.55;;;;;;;27.68;49.25;99580.06;5123321;28;20340;-68
2021/08/16 09:17:01;;;;;;;9.90;6.45;;;;;;;27.52;48.48;99571.84;5123423;28;20242;-70
2021/08/16 09:19:47;;;;;;;7.75;6.05;;;;;;;27.47;48.78;99574.13;5124302;28;20114;-70
2021/08/16 09:22:36;;;;;;;9.43;5.93;;;;;;;27.38;46.24;99581.97;5123023;28;20077;-68
2021/08/16 09:25:22;;;;;;;6.82;5.07;;;;;;;27.41;47.60;99572.00;5121171;28;20036;-67
2021/08/16 09:28:08;;;;;;;7.25;5.95;;;;;;;27.48;48.60;99584.63;5119870;28;20055;-69
2021/08/16 09:30:56;;;;;;;12.88;5.82;;;;;;;27.45;48.22;99586.72;5122975;28;20038;-69
2021/08/16 09:33:57;;;;;;;10.60;5.70;;;;;;;27.33;48.11;99597.47;5120043;28;20023;-69
2021/08/16 09:36:43;;;;;;;10.20;5.93;;;;;;;27.46;49.16;99593.72;5121247;28;20031;-70
2021/08/16 09:39:33;;;;;;;6.97;5.28;;;;;;;27.50;50.35;99584.47;5121221;28;20264;-70
2021/08/16 09:42:19;;;;;;;8.63;5.47;;;;;;;27.53;49.05;99578.84;5123539;27;20034;-69
2021/08/16 09:45:06;;;;;;;6.60;5.10;;;;;;;27.54;48.23;99586.69;5105868;28;20347;-70
2021/08/16 09:47:56;;;;;;;7.28;5.68;;;;;;;27.67;48.38;99580.22;5121266;28;20066;-70
2021/08/16 09:50:44;;;;;;;6.60;5.63;;;;;;;27.73;47.95;99583.13;5122137;28;20055;-71
2021/08/16 09:53:30;;;;;;;8.00;6.13;;;;;;;27.72;48.47;99584.13;5122787;28;20111;-69
2021/08/16 09:56:18;;;;;;;6.82;5.65;;;;;;;27.73;47.33;99591.13;5120599;28;20225;-68
2021/08/16 09:59:04;;;;;;;8.68;5.70;;;;;;;27.73;48.56;99591.13;5100749;28;20085;-68
2021/08/16 10:01:50;;;;;;;11.05;6.00;;;;;;;27.77;47.75;99588.16;5092484;28;20221;-68
2021/08/16 10:04:36;;;;;;;8.40;5.05;;;;;;;27.75;47.28;99584.78;5090989;28;20031;-69
2021/08/16 10:07:26;;;;;;;9.88;5.85;;;;;;;27.54;47.46;99548.59;5100380;28;20032;-69
2021/08/16 10:10:12;;;;;;;8.63;5.38;;;;;;;27.81;47.37;99586.88;5100704;28;20336;-67
2021/08/16 10:12:59;;;;;;;8.45;5.88;;;;;;;27.80;46.54;99580.69;5095519;28;20027;-69
2021/08/16 10:15:50;;;;;;;8.93;5.25;;;;;;;27.83;46.71;99580.41;5101788;28;20220;-67
2021/08/16 10:18:42;;;;;;;7.22;5.55;;;;;;;27.63;45.75;99550.38;5096056;28;20339;-69
2021/08/16 10:21:28;;;;;;;;;;;;;;;27.87;46.17;99576.47;5099178;28;20023;-69
2021/08/16 10:24:30;;;;;;;11.57;5.50;;;;;;;27.96;45.57;99584.56;5100648;28;19912;-72
2021/08/16 10:27:16;;;;;;;7.47;4.63;;;;;;;28.00;46.24;99581.47;5103292;28;20032;-70
2021/08/16 10:30:11;;;;;;;6.63;4.80;;;;;;;27.76;45.13;99534.06;5086558;28;20151;-70
2021/08/16 10:33:04;;;;;;;7.15;5.00;;;;;;;27.99;44.77;99573.63;5100781;28;20047;-69
2021/08/16 10:35:50;;;;;;;6.32;4.70;;;;;;;28.01;44.54;99572.50;5099882;28;20325;-69
2021/08/16 10:38:49;;;;;;;5.93;4.35;;;;;;;27.87;43.68;99533.03;5099924;28;20020;-72
2021/08/16 10:41:39;;;;;;;8.05;4.93;;;;;;;28.11;44.29;99571.63;5099134;28;20039;-70
2021/08/16 10:44:56;;;;;;;7.80;4.95;;;;;;;27.96;43.91;99553.47;5097651;28;20036;-70
2021/08/16 10:47:42;;;;;;;8.35;5.25;;;;;;;28.01;44.71;99556.53;5094941;28;20020;-70
2021/08/16 10:50:28;;;;;;;7.03;5.13;;;;;;;28.09;44.93;99565.59;5098801;28;20072;-70
2021/08/16 10:53:14;;;;;;;8.60;5.32;;;;;;;28.01;45.27;99555.72;5097199;28;20042;-69
2021/08/16 10:56:01;;;;;;;13.18;5.35;;;;;;;28.09;45.40;99570.94;5090891;28;20027;-69
2021/08/16 10:58:48;;;;;;;8.02;5.00;;;;;;;28.07;45.09;99555.09;5094559;28;20040;-70
2021/08/16 11:01:36;;;;;;;7.75;5.20;;;;;;;28.11;43.94;99551.16;5100610;28;20118;-73
2021/08/16 11:04:32;;;;;;;6.85;4.95;;;;;;;28.16;45.38;99543.56;5102919;28;20093;-69
2021/08/16 11:07:24;;;;;;;9.75;5.30;;;;;;;28.16;44.71;99550.69;5099899;28;20212;-68
2021/08/16 11:10:11;;;;;;;9.60;4.80;;;;;;;28.07;44.53;99547.94;5101772;28;20054;-69
2021/08/16 11:12:58;;;;;;;6.53;4.88;;;;;;;28.14;43.98;99545.53;5099727;28;20032;-68
2021/08/16 11:15:45;;;;;;;6.13;4.88;;;;;;;28.15;43.44;99543.72;5095246;28;20252;-72
2021/08/16 11:18:31;;;;;;;7.80;4.93;;;;;;;28.15;43.21;99536.56;5100167;28;20194;-68
2021/08/16 11:21:21;;;;;;;6.45;5.03;;;;;;;28.14;43.42;99518.06;5101917;28;20383;-71
2021/08/16 11:24:07;;;;;;;6.00;4.95;;;;;;;28.29;44.54;99537.88;5081879;28;20042;-70
2021/08/16 11:26:53;;;;;;;4.85;4.35;;;;;;;28.24;42.98;99532.97;5081955;28;20364;-70
2021/08/16 11:29:39;;;;;;;7.18;4.35;;;;;;;28.32;43.04;99540.22;5082308;28;20136;-69
2021/08/16 11:32:27;;;;;;;5.65;4.80;;;;;;;28.28;42.60;99540.69;5082551;28;20206;-71
2021/08/16 11:35:13;;;;;;;5.80;4.85;;;;;;;28.25;41.92;99544.50;5083398;28;20290;-70
2021/08/16 11:37:59;;;;;;;5.57;4.30;;;;;;;28.20;42.90;99523.59;5102939;28;20035;-70
2021/08/16 11:40:44;;;;;;;7.72;5.13;;;;;;;28.22;42.62;99539.47;5102164;28;20024;-67
2021/08/16 11:43:30;;;;;;;6.65;4.65;;;;;;;28.22;41.90;99536.81;5102085;28;20300;-68
2021/08/16 11:46:17;;;;;;;7.65;4.93;;;;;;;28.26;43.47;99534.66;5102191;28;20366;-68
2021/08/16 11:49:08;;;;;;;7.88;4.68;;;;;;;28.23;42.52;99527.81;5086483;28;20031;-70
2021/08/16 11:51:54;;;;;;;4.63;4.10;;;;;;;28.24;41.76;99529.50;5101358;28;20344;-69
2021/08/16 11:54:40;;;;;;;8.38;4.90;;;;;;;28.22;41.95;99539.47;5105312;28;20042;-68
2021/08/16 11:57:26;;;;;;;6.43;4.80;;;;;;;28.15;41.87;99536.56;5103050;28;20024;-70
2021/08/16 12:00:13;;;;;;;9.13;4.88;;;;;;;28.06;42.34;99535.63;5105701;28;20329;-70
2021/08/16 12:02:59;;;;;;;9.93;4.53;;;;;;;28.16;42.01;99529.41;5104251;28;20044;-68
2021/08/16 12:05:45;;;;;;;9.00;5.50;;;;;;;28.18;41.81;99533.59;5104300;28;20087;-67
2021/08/16 12:08:34;;;;;;;7.75;5.40;;;;;;;28.18;42.27;99536.25;5105589;28;20032;-69
2021/08/16 12:11:22;;;;;;;5.47;4.90;;;;;;;28.18;43.32;99535.44;5104914;28;20255;-70
2021/08/16 12:14:08;;;;;;;7.20;5.18;;;;;;;28.07;44.50;99537.28;5105644;28;20028;-70
2021/08/16 12:16:56;;;;;;;8.27;4.97;;;;;;;28.06;43.84;99527.66;5104920;28;20055;-69
2021/08/16 12:19:45;;;;;;;6.68;4.50;;;;;;;28.03;44.11;99517.31;5099555;28;20016;-69
2021/08/16 12:22:44;;;;;;;5.93;4.68;;;;;;;28.05;43.63;99520.63;5126656;27;20027;-69
2021/08/16 12:25:30;;;;;;;7.65;4.70;;;;;;;28.11;44.21;99518.38;5122890;27;20383;-69
2021/08/16 12:28:16;;;;;;;7.60;5.10;;;;;;;28.08;44.00;99522.16;5143608;27;20345;-69
2021/08/16 12:31:27;;;;;;;7.22;5.05;;;;;;;28.18;42.66;99522.09;5135252;27;20257;-69
2021/08/16 12:34:14;;;;;;;8.35;5.18;;;;;;;28.19;43.20;99519.28;5123817;27;21016;-70
2021/08/16 12:37:00;;;;;;;5.75;5.00;;;;;;;28.12;43.34;99494.25;5139422;27;20344;-69
2021/08/16 12:39:46;;;;;;;7.70;4.80;;;;;;;28.30;43.01;99525.38;5128493;27;20023;-69
2021/08/16 12:42:33;;;;;;;6.70;5.22;;;;;;;28.34;41.28;99524.91;5125771;28;20027;-67
2021/08/16 12:45:18;;;;;;;7.35;4.43;;;;;;;28.35;41.56;99523.94;5124326;28;20091;-68
2021/08/16 12:48:06;;;;;;;7.43;4.43;;;;;;;28.42;41.92;99525.00;5125491;28;20062;-71
2021/08/16 12:50:58;;;;;;;5.38;4.78;;;;;;;28.35;42.42;99520.44;5125475;28;20023;-70
2021/08/16 12:53:44;;;;;;;;;;;;;;;28.37;42.83;99518.47;5125993;28;20031;-70
2021/08/16 12:56:31;;;;;;;7.95;5.00;;;;;;;28.37;43.32;99519.28;5125321;28;19974;-70